Ohgi Maru — JD3850 — position and weather

sailwx.info

Track history (hours):
 
Tides and Currents Weather Stations Pressure Air Temp Water Temp Dewpoint Dewpoint Depression Visibility Wind Speed Wind Dir Waves Ship Positions

Ohgi Maru

Last reported at 2018-Jan-24 01:30 UTC. Time now 2018-Jan-24 01:46 UTC.
Position N 35°27' E 139°40'.

Length 37 m; draft 3 m.

Type: Tug. MMSI: 431006373.

Date/timePositionNaut miles runAvg speedWind from/ knotsBaromVisibWave heightAir tempDewpointWater temp
2018-Jan-24 01:30N 35°27' E 139°40'0 0.1
2018-Jan-24 01:00N 35°27' E 139°39'4 7.1
2018-Jan-24 00:30N 35°28' E 139°44'4 7.2
2018-Jan-24 00:00N 35°31' E 139°46'2 4.1
2018-Jan-23 23:30N 35°30' E 139°44'4 9.0
2018-Jan-23 23:00N 35°27' E 139°40'0 0.0
2018-Jan-23 22:30N 35°27' E 139°40'0 0.0
2018-Jan-23 22:00N 35°27' E 139°40'0 0.0
2018-Jan-23 21:30N 35°27' E 139°40'0 0.0
2018-Jan-23 21:00N 35°27' E 139°40'1 2.7
2018-Jan-23 20:31N 35°26' E 139°41'0 0.2
2018-Jan-23 20:00N 35°26' E 139°41'0 0.3
2018-Jan-23 19:30N 35°26' E 139°41'1 2.7
2018-Jan-23 19:00N 35°27' E 139°40'0 0.0
2018-Jan-23 18:30N 35°27' E 139°40'0 0.0
2018-Jan-23 18:00N 35°27' E 139°40'0 0.0
2018-Jan-23 17:30N 35°27' E 139°40'0 0.0
2018-Jan-23 17:00N 35°27' E 139°40'0 0.0
2018-Jan-23 16:30N 35°27' E 139°40'0 0.0
2018-Jan-23 16:00N 35°27' E 139°40'0 0.0
2018-Jan-23 15:30N 35°27' E 139°40'0 0.0
2018-Jan-23 15:00N 35°27' E 139°40'0 0.0
2018-Jan-23 14:30N 35°27' E 139°40'0 0.0
2018-Jan-23 14:00N 35°27' E 139°40'0 0.0
2018-Jan-23 13:30N 35°27' E 139°40'0 0.0
2018-Jan-23 13:00N 35°27' E 139°40'0 0.1
2018-Jan-23 12:30N 35°27' E 139°39'0 0.1
2018-Jan-23 12:00N 35°27' E 139°40'0 0.0
2018-Jan-23 11:30N 35°27' E 139°40'0 0.0
2018-Jan-23 11:00N 35°27' E 139°40'0 0.0
2018-Jan-23 10:30N 35°27' E 139°40'0 0.0
2018-Jan-23 10:00N 35°27' E 139°40'0 0.0
2018-Jan-23 09:30N 35°27' E 139°40'0 0.0
2018-Jan-23 08:59N 35°27' E 139°40'0 0.0
2018-Jan-23 08:30N 35°27' E 139°40'0 0.0
2018-Jan-23 08:00N 35°27' E 139°40'0 0.0
2018-Jan-23 07:30N 35°27' E 139°40'0 0.0
2018-Jan-23 07:00N 35°27' E 139°40'0 0.0
2018-Jan-23 06:30N 35°27' E 139°40'0 0.1
2018-Jan-23 06:00N 35°27' E 139°39'0 0.1
2018-Jan-23 05:30N 35°27' E 139°40'4 7.7
2018-Jan-23 05:01N 35°23' E 139°41'1 1.3
2018-Jan-23 04:31N 35°24' E 139°41'0 0.0
2018-Jan-23 04:01N 35°24' E 139°41'0 0.1
2018-Jan-23 03:30N 35°24' E 139°41'1 1.9
2018-Jan-23 03:00N 35°24' E 139°42'4 7.3
2018-Jan-23 02:30N 35°27' E 139°40'0 0.0
2018-Jan-23 02:00N 35°27' E 139°40'0 0.0
2018-Jan-23 01:29N 35°27' E 139°40'0 0.0
2018-Jan-23 01:00N 35°27' E 139°40'0 0.0
2018-Jan-23 00:30N 35°27' E 139°40'0 0.0
2018-Jan-23 00:00N 35°27' E 139°40'0 0.0
2018-Jan-22 23:30N 35°27' E 139°40'0 0.1
2018-Jan-22 23:00N 35°27' E 139°39'0 0.1
2018-Jan-22 22:30N 35°27' E 139°40'0 0.1
2018-Jan-22 22:00N 35°27' E 139°39'0 0.1
2018-Jan-22 21:30N 35°27' E 139°40'0 0.0
2018-Jan-22 21:00N 35°27' E 139°40'0 0.0
2018-Jan-22 20:30N 35°27' E 139°40'0 0.0
2018-Jan-22 20:00N 35°27' E 139°40'0 0.0
2018-Jan-22 19:30N 35°27' E 139°40'0 0.1
2018-Jan-22 19:00N 35°27' E 139°39'0 0.1
2018-Jan-22 18:30N 35°27' E 139°40'0 0.0
2018-Jan-22 18:00N 35°27' E 139°40'0 0.1
2018-Jan-22 17:30N 35°27' E 139°39'0 0.1
2018-Jan-22 17:00N 35°27' E 139°40'0 0.0
2018-Jan-22 16:30N 35°27' E 139°40'0 0.0
2018-Jan-22 16:00N 35°27' E 139°40'0 0.1
2018-Jan-22 15:30N 35°27' E 139°39'0 0.1
2018-Jan-22 15:00N 35°27' E 139°40'0 0.0
2018-Jan-22 14:30N 35°27' E 139°40'0 0.0
2018-Jan-22 14:00N 35°27' E 139°40'0 0.0
2018-Jan-22 13:30N 35°27' E 139°40'0 0.0
2018-Jan-22 13:00N 35°27' E 139°40'0 0.0
2018-Jan-22 12:30N 35°27' E 139°40'0 0.0
2018-Jan-22 12:00N 35°27' E 139°40'0 0.0
2018-Jan-22 11:30N 35°27' E 139°40'3 6.1
2018-Jan-22 11:00N 35°27' E 139°43'4 7.0
2018-Jan-22 10:30N 35°29' E 139°47'0 0.1
2018-Jan-22 09:59N 35°29' E 139°47'0 0.8
2018-Jan-22 09:31N 35°29' E 139°47'0 0.0
2018-Jan-22 09:01N 35°29' E 139°47'0 0.8
2018-Jan-22 08:30N 35°30' E 139°47'3 5.6
2018-Jan-22 08:00N 35°30' E 139°44'1 2.1
2018-Jan-22 07:30N 35°29' E 139°43'2 4.2
2018-Jan-22 07:01N 35°27' E 139°43'1 1.2
2018-Jan-22 06:30N 35°27' E 139°44'4 7.1
2018-Jan-22 06:01N 35°27' E 139°39'0 0.1
2018-Jan-22 05:30N 35°27' E 139°40'0 0.0
2018-Jan-22 05:00N 35°27' E 139°40'0 0.0
2018-Jan-22 04:31N 35°27' E 139°40'0 0.0
2018-Jan-22 04:00N 35°27' E 139°40'0 0.0
2018-Jan-22 03:30N 35°27' E 139°40'0 0.0
2018-Jan-22 03:00N 35°27' E 139°40'0 0.0
2018-Jan-22 02:30N 35°27' E 139°40'0 0.0
2018-Jan-22 02:00N 35°27' E 139°40'2 3.7
2018-Jan-22 01:31N 35°27' E 139°42'510.0
2018-Jan-22 01:01N 35°29' E 139°48'1 1.0
2018-Jan-22 00:30N 35°29' E 139°47'0 0.1
2018-Jan-21 23:57N 35°29' E 139°47'1 2.2
2018-Jan-21 23:31N 35°30' E 139°47'1 2.8
2018-Jan-21 23:00N 35°31' E 139°46'3 6.4
2018-Jan-21 22:31N 35°29' E 139°43'4 7.8
2018-Jan-21 22:01N 35°26' E 139°45'1 2.1
2018-Jan-21 21:30N 35°26' E 139°44'4 7.3
2018-Jan-21 21:00N 35°27' E 139°40'0 0.1
2018-Jan-21 20:31N 35°27' E 139°39'0 0.1
2018-Jan-21 20:00N 35°27' E 139°40'0 0.0
2018-Jan-21 19:30N 35°27' E 139°40'0 0.1
2018-Jan-21 19:00N 35°27' E 139°39'0 0.1
2018-Jan-21 18:30N 35°27' E 139°40'0 0.1
2018-Jan-21 18:00N 35°27' E 139°39'0 0.1
2018-Jan-21 17:30N 35°27' E 139°40'0 0.0
2018-Jan-21 17:00N 35°27' E 139°40'0 0.1
2018-Jan-21 16:31N 35°27' E 139°39'0 0.1
2018-Jan-21 16:00N 35°27' E 139°40'0 0.0
2018-Jan-21 15:30N 35°27' E 139°40'0 0.0
2018-Jan-21 15:01N 35°27' E 139°40'0 0.0
2018-Jan-21 14:30N 35°27' E 139°40'0 0.0
2018-Jan-21 14:00N 35°27' E 139°40'0 0.1
2018-Jan-21 13:30N 35°27' E 139°39'0 0.0
2018-Jan-21 13:00N 35°27' E 139°39'0 0.1
2018-Jan-21 12:31N 35°27' E 139°40'0 0.1
2018-Jan-21 12:00N 35°27' E 139°39'0 0.0
2018-Jan-21 11:30N 35°27' E 139°39'0 0.1
2018-Jan-21 11:01N 35°27' E 139°40'0 0.0
2018-Jan-21 10:30N 35°27' E 139°40'0 0.1
2018-Jan-21 10:00N 35°27' E 139°39'0 0.1
2018-Jan-21 09:30N 35°27' E 139°40'0 0.0
2018-Jan-21 09:01N 35°27' E 139°40'1 3.0
2018-Jan-21 08:31N 35°28' E 139°41'0 1.0
2018-Jan-21 08:01N 35°28' E 139°41'1 1.6
2018-Jan-21 07:30N 35°28' E 139°42'2 4.7
2018-Jan-21 07:00N 35°27' E 139°40'0 0.1
2018-Jan-21 06:30N 35°27' E 139°39'0 0.1
2018-Jan-21 06:01N 35°27' E 139°40'0 0.0
2018-Jan-21 05:30N 35°27' E 139°40'0 0.1
2018-Jan-21 05:01N 35°27' E 139°39'0 0.1
2018-Jan-21 04:30N 35°27' E 139°40'0 0.0
2018-Jan-21 04:01N 35°27' E 139°40'4 8.9
2018-Jan-21 03:30N 35°28' E 139°45'2 3.6
2018-Jan-21 02:59N 35°29' E 139°47'0 0.0
2018-Jan-21 02:30N 35°29' E 139°47'0 0.4
2018-Jan-21 02:00N 35°29' E 139°47'1 1.2
2018-Jan-21 01:30N 35°28' E 139°47'1 2.3
2018-Jan-21 01:00N 35°29' E 139°47'0 0.0
2018-Jan-21 00:30N 35°29' E 139°47'0 0.0
2018-Jan-21 00:00N 35°29' E 139°47'0 0.6
2018-Jan-20 23:31N 35°30' E 139°47'2 2.9
2018-Jan-20 23:00N 35°29' E 139°45'2 3.7
2018-Jan-20 22:30N 35°28' E 139°46'1 1.3
2018-Jan-20 22:00N 35°28' E 139°47'4 8.7
2018-Jan-20 21:30N 35°27' E 139°41'2 3.2
2018-Jan-20 21:00N 35°27' E 139°39'0 0.1
2018-Jan-20 20:30N 35°27' E 139°40'0 0.0
2018-Jan-20 20:00N 35°27' E 139°40'0 0.0
2018-Jan-20 19:30N 35°27' E 139°40'0 0.0
2018-Jan-20 19:01N 35°27' E 139°40'0 0.0
2018-Jan-20 18:30N 35°27' E 139°40'0 0.0
2018-Jan-20 18:01N 35°27' E 139°40'0 0.1
2018-Jan-20 17:30N 35°27' E 139°39'0 0.1
2018-Jan-20 17:00N 35°27' E 139°40'0 0.0
2018-Jan-20 16:30N 35°27' E 139°40'0 0.0
2018-Jan-20 16:00N 35°27' E 139°40'0 0.0
2018-Jan-20 15:31N 35°27' E 139°40'0 0.0
2018-Jan-20 15:00N 35°27' E 139°40'0 0.0
2018-Jan-20 14:30N 35°27' E 139°40'0 0.0
2018-Jan-20 14:00N 35°27' E 139°40'0 0.0
2018-Jan-20 13:29N 35°27' E 139°40'0 0.1
2018-Jan-20 13:01N 35°27' E 139°39'0 0.0
2018-Jan-20 12:30N 35°27' E 139°39'0 0.0
2018-Jan-20 12:00N 35°27' E 139°39'0 0.0
2018-Jan-20 11:30N 35°27' E 139°39'0 0.0
2018-Jan-20 11:00N 35°27' E 139°39'0 0.1
2018-Jan-20 10:31N 35°27' E 139°40'0 0.1
2018-Jan-20 10:00N 35°27' E 139°39'0 0.0
2018-Jan-20 09:30N 35°27' E 139°39'0 0.0
2018-Jan-20 09:00N 35°27' E 139°39'1 2.1
2018-Jan-20 08:30N 35°27' E 139°41'2 3.2
2018-Jan-20 08:00N 35°25' E 139°41'0 0.1
2018-Jan-20 07:31N 35°25' E 139°41'2 3.8
2018-Jan-20 07:00N 35°27' E 139°40'1 1.6
2018-Jan-20 06:30N 35°27' E 139°39'0 0.1
2018-Jan-20 06:00N 35°27' E 139°40'0 0.1
2018-Jan-20 05:30N 35°27' E 139°39'0 0.0
2018-Jan-20 05:00N 35°27' E 139°39'2 5.1
2018-Jan-20 04:31N 35°27' E 139°43'4 8.4
2018-Jan-20 04:00N 35°29' E 139°47'0 0.1
2018-Jan-20 03:30N 35°29' E 139°47'0 0.0
2018-Jan-20 03:00N 35°29' E 139°47'0 0.3
2018-Jan-20 02:30N 35°29' E 139°47'1 2.8
2018-Jan-20 02:00N 35°28' E 139°46'2 4.2
2018-Jan-20 01:30N 35°26' E 139°46'3 6.3
2018-Jan-20 01:00N 35°27' E 139°42'0 0.0
2018-Jan-20 00:30N 35°27' E 139°42'0 0.0
2018-Jan-20 00:01N 35°27' E 139°42'1 2.1
2018-Jan-19 23:30N 35°26' E 139°41'0 0.2
2018-Jan-19 23:00N 35°26' E 139°41'1 2.8
2018-Jan-19 22:30N 35°26' E 139°43'1 1.2
2018-Jan-19 22:00N 35°26' E 139°42'2 4.2
2018-Jan-19 21:31N 35°27' E 139°40'0 0.0
2018-Jan-19 21:00N 35°27' E 139°40'0 0.1
2018-Jan-19 20:30N 35°27' E 139°39'0 0.1
2018-Jan-19 20:00N 35°27' E 139°40'0 0.0
2018-Jan-19 19:31N 35°27' E 139°40'0 0.1
2018-Jan-19 19:00N 35°27' E 139°39'0 0.1
2018-Jan-19 18:31N 35°27' E 139°40'0 0.1
2018-Jan-19 18:01N 35°27' E 139°39'0 0.0
2018-Jan-19 17:30N 35°27' E 139°39'0 0.1
2018-Jan-19 16:59N 35°27' E 139°40'0 0.0
2018-Jan-19 16:30N 35°27' E 139°40'0 0.1
2018-Jan-19 16:00N 35°27' E 139°39'0 0.0
2018-Jan-19 15:30N 35°27' E 139°39'0 0.1
2018-Jan-19 15:01N 35°27' E 139°40'0 0.0
2018-Jan-19 14:30N 35°27' E 139°40'0 0.0
2018-Jan-19 14:00N 35°27' E 139°40'0 0.1
2018-Jan-19 13:31N 35°27' E 139°39'0 0.0
2018-Jan-19 13:00N 35°27' E 139°39'0 0.0
2018-Jan-19 12:31N 35°27' E 139°39'0 0.0
2018-Jan-19 12:00N 35°27' E 139°39'0 0.1
2018-Jan-19 11:30N 35°27' E 139°40'0 0.0
2018-Jan-19 11:00N 35°27' E 139°40'0 0.0
2018-Jan-19 10:30N 35°27' E 139°40'0 0.0
2018-Jan-19 10:00N 35°27' E 139°40'0 0.0
2018-Jan-19 09:30N 35°27' E 139°40'0 0.1
2018-Jan-19 09:00N 35°27' E 139°39'0 0.1
2018-Jan-19 08:30N 35°27' E 139°40'0 0.0
2018-Jan-19 08:01N 35°27' E 139°40'0 0.0
2018-Jan-19 07:30N 35°27' E 139°40'2 4.2
2018-Jan-19 07:00N 35°28' E 139°42'1 2.7
2018-Jan-19 06:31N 35°27' E 139°43'0 1.0
2018-Jan-19 06:00N 35°27' E 139°42'0 0.0
2018-Jan-19 05:30N 35°27' E 139°42'0 0.0
2018-Jan-19 05:00N 35°27' E 139°42'0 0.0
2018-Jan-19 04:30N 35°27' E 139°42'1 1.1
2018-Jan-19 04:00N 35°27' E 139°43'510.0
2018-Jan-19 03:31N 35°29' E 139°49'612.7
2018-Jan-19 03:00N 35°31' E 139°56'0 0.2
2018-Jan-19 02:30N 35°31' E 139°56'0 0.1
2018-Jan-19 02:00N 35°31' E 139°56'0 0.7
2018-Jan-19 01:30N 35°31' E 139°56'2 3.0
2018-Jan-19 01:00N 35°30' E 139°54'1 1.1
2018-Jan-19 00:27N 35°29' E 139°54'2 3.5
2018-Jan-19 00:00N 35°29' E 139°56'2 2.4
2018-Jan-18 23:15N 35°28' E 139°58'0 0.0
2018-Jan-18 22:58N 35°28' E 139°58'3 7.1
2018-Jan-18 22:30N 35°29' E 139°54'5 9.5
2018-Jan-18 22:00N 35°27' E 139°49'5 9.5
2018-Jan-18 21:30N 35°27' E 139°43'3 5.7
2018-Jan-18 21:00N 35°27' E 139°40'0 0.1
2018-Jan-18 20:30N 35°27' E 139°39'0 0.1
2018-Jan-18 20:00N 35°27' E 139°40'0 0.0
2018-Jan-18 19:30N 35°27' E 139°40'0 0.1
2018-Jan-18 19:01N 35°27' E 139°39'0 0.1
2018-Jan-18 18:31N 35°27' E 139°40'0 0.1
2018-Jan-18 18:00N 35°27' E 139°39'0 0.1
2018-Jan-18 17:30N 35°27' E 139°40'0 0.0
2018-Jan-18 17:01N 35°27' E 139°40'0 0.0
2018-Jan-18 16:31N 35°27' E 139°40'0 0.1
2018-Jan-18 16:01N 35°27' E 139°39'0 0.1
2018-Jan-18 15:31N 35°27' E 139°40'0 0.1
2018-Jan-18 15:00N 35°27' E 139°39'0 0.1
2018-Jan-18 14:30N 35°27' E 139°40'0 0.0
2018-Jan-18 13:59N 35°27' E 139°40'0 0.0
2018-Jan-18 13:30N 35°27' E 139°40'0 0.0
2018-Jan-18 13:00N 35°27' E 139°40'0 0.1
2018-Jan-18 12:31N 35°27' E 139°39'0 0.0
2018-Jan-18 12:01N 35°27' E 139°39'0 0.0
2018-Jan-18 11:30N 35°27' E 139°39'0 0.1
2018-Jan-18 11:00N 35°27' E 139°40'0 0.1
2018-Jan-18 10:30N 35°27' E 139°39'0 0.1
2018-Jan-18 10:01N 35°27' E 139°40'0 0.0
2018-Jan-18 09:31N 35°27' E 139°40'0 0.1
2018-Jan-18 09:01N 35°27' E 139°39'0 0.1
2018-Jan-18 08:30N 35°27' E 139°40'0 0.0
2018-Jan-18 08:01N 35°27' E 139°40'0 0.0
2018-Jan-18 07:31N 35°27' E 139°40'0 0.1
2018-Jan-18 07:01N 35°27' E 139°39'0 0.1
2018-Jan-18 06:31N 35°27' E 139°40'0 0.1
2018-Jan-18 05:59N 35°27' E 139°39'0 0.1
2018-Jan-18 05:31N 35°27' E 139°40'4 7.3
2018-Jan-18 05:01N 35°29' E 139°43'0 0.2
2018-Jan-18 04:30N 35°29' E 139°43'0 0.6
2018-Jan-18 04:00N 35°29' E 139°43'2 4.0
2018-Jan-18 03:30N 35°28' E 139°45'0 0.7
2018-Jan-18 03:00N 35°28' E 139°44'0 0.0
2018-Jan-18 02:30N 35°28' E 139°44'3 5.9
2018-Jan-18 02:00N 35°27' E 139°41'1 2.6
2018-Jan-18 01:30N 35°27' E 139°39'0 0.1
2018-Jan-18 01:00N 35°27' E 139°40'0 0.0
2018-Jan-18 00:01N 35°27' E 139°40'0 0.0
2018-Jan-17 23:58N 35°27' E 139°40'  
Track history (hours):
 
Tides and Currents Weather Stations Pressure Air Temp Water Temp Dewpoint Dewpoint Depression Visibility Wind Speed Wind Dir Waves Ship Positions

Ohgi Maru

Last reported at 2018-Jan-24 01:30 UTC. Time now 2018-Jan-24 01:46 UTC.
Position N 35°27' E 139°40'.

Length 37 m; draft 3 m.

Type: Tug. MMSI: 431006373.

Date/timePositionNaut miles runAvg speedWind from/ knotsBaromVisibWave heightAir tempDewpointWater temp
2018-Jan-24 01:30N 35°27' E 139°40'0 0.1
2018-Jan-24 01:00N 35°27' E 139°39'4 7.1
2018-Jan-24 00:30N 35°28' E 139°44'4 7.2
2018-Jan-24 00:00N 35°31' E 139°46'2 4.1
2018-Jan-23 23:30N 35°30' E 139°44'4 9.0
2018-Jan-23 23:00N 35°27' E 139°40'0 0.0
2018-Jan-23 22:30N 35°27' E 139°40'0 0.0
2018-Jan-23 22:00N 35°27' E 139°40'0 0.0
2018-Jan-23 21:30N 35°27' E 139°40'0 0.0
2018-Jan-23 21:00N 35°27' E 139°40'1 2.7
2018-Jan-23 20:31N 35°26' E 139°41'0 0.2
2018-Jan-23 20:00N 35°26' E 139°41'0 0.3
2018-Jan-23 19:30N 35°26' E 139°41'1 2.7
2018-Jan-23 19:00N 35°27' E 139°40'0 0.0
2018-Jan-23 18:30N 35°27' E 139°40'0 0.0
2018-Jan-23 18:00N 35°27' E 139°40'0 0.0
2018-Jan-23 17:30N 35°27' E 139°40'0 0.0
2018-Jan-23 17:00N 35°27' E 139°40'0 0.0
2018-Jan-23 16:30N 35°27' E 139°40'0 0.0
2018-Jan-23 16:00N 35°27' E 139°40'0 0.0
2018-Jan-23 15:30N 35°27' E 139°40'0 0.0
2018-Jan-23 15:00N 35°27' E 139°40'0 0.0
2018-Jan-23 14:30N 35°27' E 139°40'0 0.0
2018-Jan-23 14:00N 35°27' E 139°40'0 0.0
2018-Jan-23 13:30N 35°27' E 139°40'0 0.0
2018-Jan-23 13:00N 35°27' E 139°40'0 0.1
2018-Jan-23 12:30N 35°27' E 139°39'0 0.1
2018-Jan-23 12:00N 35°27' E 139°40'0 0.0
2018-Jan-23 11:30N 35°27' E 139°40'0 0.0
2018-Jan-23 11:00N 35°27' E 139°40'0 0.0
2018-Jan-23 10:30N 35°27' E 139°40'0 0.0
2018-Jan-23 10:00N 35°27' E 139°40'0 0.0
2018-Jan-23 09:30N 35°27' E 139°40'0 0.0
2018-Jan-23 08:59N 35°27' E 139°40'0 0.0
2018-Jan-23 08:30N 35°27' E 139°40'0 0.0
2018-Jan-23 08:00N 35°27' E 139°40'0 0.0
2018-Jan-23 07:30N 35°27' E 139°40'0 0.0
2018-Jan-23 07:00N 35°27' E 139°40'0 0.0
2018-Jan-23 06:30N 35°27' E 139°40'0 0.1
2018-Jan-23 06:00N 35°27' E 139°39'0 0.1
2018-Jan-23 05:30N 35°27' E 139°40'4 7.7
2018-Jan-23 05:01N 35°23' E 139°41'1 1.3
2018-Jan-23 04:31N 35°24' E 139°41'0 0.0
2018-Jan-23 04:01N 35°24' E 139°41'0 0.1
2018-Jan-23 03:30N 35°24' E 139°41'1 1.9
2018-Jan-23 03:00N 35°24' E 139°42'4 7.3
2018-Jan-23 02:30N 35°27' E 139°40'0 0.0
2018-Jan-23 02:00N 35°27' E 139°40'0 0.0
2018-Jan-23 01:29N 35°27' E 139°40'0 0.0
2018-Jan-23 01:00N 35°27' E 139°40'0 0.0
2018-Jan-23 00:30N 35°27' E 139°40'0 0.0
2018-Jan-23 00:00N 35°27' E 139°40'0 0.0
2018-Jan-22 23:30N 35°27' E 139°40'0 0.1
2018-Jan-22 23:00N 35°27' E 139°39'0 0.1
2018-Jan-22 22:30N 35°27' E 139°40'0 0.1
2018-Jan-22 22:00N 35°27' E 139°39'0 0.1
2018-Jan-22 21:30N 35°27' E 139°40'0 0.0
2018-Jan-22 21:00N 35°27' E 139°40'0 0.0
2018-Jan-22 20:30N 35°27' E 139°40'0 0.0
2018-Jan-22 20:00N 35°27' E 139°40'0 0.0
2018-Jan-22 19:30N 35°27' E 139°40'0 0.1
2018-Jan-22 19:00N 35°27' E 139°39'0 0.1
2018-Jan-22 18:30N 35°27' E 139°40'0 0.0
2018-Jan-22 18:00N 35°27' E 139°40'0 0.1
2018-Jan-22 17:30N 35°27' E 139°39'0 0.1
2018-Jan-22 17:00N 35°27' E 139°40'0 0.0
2018-Jan-22 16:30N 35°27' E 139°40'0 0.0
2018-Jan-22 16:00N 35°27' E 139°40'0 0.1
2018-Jan-22 15:30N 35°27' E 139°39'0 0.1
2018-Jan-22 15:00N 35°27' E 139°40'0 0.0
2018-Jan-22 14:30N 35°27' E 139°40'0 0.0
2018-Jan-22 14:00N 35°27' E 139°40'0 0.0
2018-Jan-22 13:30N 35°27' E 139°40'0 0.0
2018-Jan-22 13:00N 35°27' E 139°40'0 0.0
2018-Jan-22 12:30N 35°27' E 139°40'0 0.0
2018-Jan-22 12:00N 35°27' E 139°40'0 0.0
2018-Jan-22 11:30N 35°27' E 139°40'3 6.1
2018-Jan-22 11:00N 35°27' E 139°43'4 7.0
2018-Jan-22 10:30N 35°29' E 139°47'0 0.1
2018-Jan-22 09:59N 35°29' E 139°47'0 0.8
2018-Jan-22 09:31N 35°29' E 139°47'0 0.0
2018-Jan-22 09:01N 35°29' E 139°47'0 0.8
2018-Jan-22 08:30N 35°30' E 139°47'3 5.6
2018-Jan-22 08:00N 35°30' E 139°44'1 2.1
2018-Jan-22 07:30N 35°29' E 139°43'2 4.2
2018-Jan-22 07:01N 35°27' E 139°43'1 1.2
2018-Jan-22 06:30N 35°27' E 139°44'4 7.1
2018-Jan-22 06:01N 35°27' E 139°39'0 0.1
2018-Jan-22 05:30N 35°27' E 139°40'0 0.0
2018-Jan-22 05:00N 35°27' E 139°40'0 0.0
2018-Jan-22 04:31N 35°27' E 139°40'0 0.0
2018-Jan-22 04:00N 35°27' E 139°40'0 0.0
2018-Jan-22 03:30N 35°27' E 139°40'0 0.0
2018-Jan-22 03:00N 35°27' E 139°40'0 0.0
2018-Jan-22 02:30N 35°27' E 139°40'0 0.0
2018-Jan-22 02:00N 35°27' E 139°40'2 3.7
2018-Jan-22 01:31N 35°27' E 139°42'510.0
2018-Jan-22 01:01N 35°29' E 139°48'1 1.0
2018-Jan-22 00:30N 35°29' E 139°47'0 0.1
2018-Jan-21 23:57N 35°29' E 139°47'1 2.2
2018-Jan-21 23:31N 35°30' E 139°47'1 2.8
2018-Jan-21 23:00N 35°31' E 139°46'3 6.4
2018-Jan-21 22:31N 35°29' E 139°43'4 7.8
2018-Jan-21 22:01N 35°26' E 139°45'1 2.1
2018-Jan-21 21:30N 35°26' E 139°44'4 7.3
2018-Jan-21 21:00N 35°27' E 139°40'0 0.1
2018-Jan-21 20:31N 35°27' E 139°39'0 0.1
2018-Jan-21 20:00N 35°27' E 139°40'0 0.0
2018-Jan-21 19:30N 35°27' E 139°40'0 0.1
2018-Jan-21 19:00N 35°27' E 139°39'0 0.1
2018-Jan-21 18:30N 35°27' E 139°40'0 0.1
2018-Jan-21 18:00N 35°27' E 139°39'0 0.1
2018-Jan-21 17:30N 35°27' E 139°40'0 0.0
2018-Jan-21 17:00N 35°27' E 139°40'0 0.1
2018-Jan-21 16:31N 35°27' E 139°39'0 0.1
2018-Jan-21 16:00N 35°27' E 139°40'0 0.0
2018-Jan-21 15:30N 35°27' E 139°40'0 0.0
2018-Jan-21 15:01N 35°27' E 139°40'0 0.0
2018-Jan-21 14:30N 35°27' E 139°40'0 0.0
2018-Jan-21 14:00N 35°27' E 139°40'0 0.1
2018-Jan-21 13:30N 35°27' E 139°39'0 0.0
2018-Jan-21 13:00N 35°27' E 139°39'0 0.1
2018-Jan-21 12:31N 35°27' E 139°40'0 0.1
2018-Jan-21 12:00N 35°27' E 139°39'0 0.0
2018-Jan-21 11:30N 35°27' E 139°39'0 0.1
2018-Jan-21 11:01N 35°27' E 139°40'0 0.0
2018-Jan-21 10:30N 35°27' E 139°40'0 0.1
2018-Jan-21 10:00N 35°27' E 139°39'0 0.1
2018-Jan-21 09:30N 35°27' E 139°40'0 0.0
2018-Jan-21 09:01N 35°27' E 139°40'1 3.0
2018-Jan-21 08:31N 35°28' E 139°41'0 1.0
2018-Jan-21 08:01N 35°28' E 139°41'1 1.6
2018-Jan-21 07:30N 35°28' E 139°42'2 4.7
2018-Jan-21 07:00N 35°27' E 139°40'0 0.1
2018-Jan-21 06:30N 35°27' E 139°39'0 0.1
2018-Jan-21 06:01N 35°27' E 139°40'0 0.0
2018-Jan-21 05:30N 35°27' E 139°40'0 0.1
2018-Jan-21 05:01N 35°27' E 139°39'0 0.1
2018-Jan-21 04:30N 35°27' E 139°40'0 0.0
2018-Jan-21 04:01N 35°27' E 139°40'4 8.9
2018-Jan-21 03:30N 35°28' E 139°45'2 3.6
2018-Jan-21 02:59N 35°29' E 139°47'0 0.0
2018-Jan-21 02:30N 35°29' E 139°47'0 0.4
2018-Jan-21 02:00N 35°29' E 139°47'1 1.2
2018-Jan-21 01:30N 35°28' E 139°47'1 2.3
2018-Jan-21 01:00N 35°29' E 139°47'0 0.0
2018-Jan-21 00:30N 35°29' E 139°47'0 0.0
2018-Jan-21 00:00N 35°29' E 139°47'0 0.6
2018-Jan-20 23:31N 35°30' E 139°47'2 2.9
2018-Jan-20 23:00N 35°29' E 139°45'2 3.7
2018-Jan-20 22:30N 35°28' E 139°46'1 1.3
2018-Jan-20 22:00N 35°28' E 139°47'4 8.7
2018-Jan-20 21:30N 35°27' E 139°41'2 3.2
2018-Jan-20 21:00N 35°27' E 139°39'0 0.1
2018-Jan-20 20:30N 35°27' E 139°40'0 0.0
2018-Jan-20 20:00N 35°27' E 139°40'0 0.0
2018-Jan-20 19:30N 35°27' E 139°40'0 0.0
2018-Jan-20 19:01N 35°27' E 139°40'0 0.0
2018-Jan-20 18:30N 35°27' E 139°40'0 0.0
2018-Jan-20 18:01N 35°27' E 139°40'0 0.1
2018-Jan-20 17:30N 35°27' E 139°39'0 0.1
2018-Jan-20 17:00N 35°27' E 139°40'0 0.0
2018-Jan-20 16:30N 35°27' E 139°40'0 0.0
2018-Jan-20 16:00N 35°27' E 139°40'0 0.0
2018-Jan-20 15:31N 35°27' E 139°40'0 0.0
2018-Jan-20 15:00N 35°27' E 139°40'0 0.0
2018-Jan-20 14:30N 35°27' E 139°40'0 0.0
2018-Jan-20 14:00N 35°27' E 139°40'0 0.0
2018-Jan-20 13:29N 35°27' E 139°40'0 0.1
2018-Jan-20 13:01N 35°27' E 139°39'0 0.0
2018-Jan-20 12:30N 35°27' E 139°39'0 0.0
2018-Jan-20 12:00N 35°27' E 139°39'0 0.0
2018-Jan-20 11:30N 35°27' E 139°39'0 0.0
2018-Jan-20 11:00N 35°27' E 139°39'0 0.1
2018-Jan-20 10:31N 35°27' E 139°40'0 0.1
2018-Jan-20 10:00N 35°27' E 139°39'0 0.0
2018-Jan-20 09:30N 35°27' E 139°39'0 0.0
2018-Jan-20 09:00N 35°27' E 139°39'1 2.1
2018-Jan-20 08:30N 35°27' E 139°41'2 3.2
2018-Jan-20 08:00N 35°25' E 139°41'0 0.1
2018-Jan-20 07:31N 35°25' E 139°41'2 3.8
2018-Jan-20 07:00N 35°27' E 139°40'1 1.6
2018-Jan-20 06:30N 35°27' E 139°39'0 0.1
2018-Jan-20 06:00N 35°27' E 139°40'0 0.1
2018-Jan-20 05:30N 35°27' E 139°39'0 0.0
2018-Jan-20 05:00N 35°27' E 139°39'2 5.1
2018-Jan-20 04:31N 35°27' E 139°43'4 8.4
2018-Jan-20 04:00N 35°29' E 139°47'0 0.1
2018-Jan-20 03:30N 35°29' E 139°47'0 0.0
2018-Jan-20 03:00N 35°29' E 139°47'0 0.3
2018-Jan-20 02:30N 35°29' E 139°47'1 2.8
2018-Jan-20 02:00N 35°28' E 139°46'2 4.2
2018-Jan-20 01:30N 35°26' E 139°46'3 6.3
2018-Jan-20 01:00N 35°27' E 139°42'0 0.0
2018-Jan-20 00:30N 35°27' E 139°42'0 0.0
2018-Jan-20 00:01N 35°27' E 139°42'1 2.1
2018-Jan-19 23:30N 35°26' E 139°41'0 0.2
2018-Jan-19 23:00N 35°26' E 139°41'1 2.8
2018-Jan-19 22:30N 35°26' E 139°43'1 1.2
2018-Jan-19 22:00N 35°26' E 139°42'2 4.2
2018-Jan-19 21:31N 35°27' E 139°40'0 0.0
2018-Jan-19 21:00N 35°27' E 139°40'0 0.1
2018-Jan-19 20:30N 35°27' E 139°39'0 0.1
2018-Jan-19 20:00N 35°27' E 139°40'0 0.0
2018-Jan-19 19:31N 35°27' E 139°40'0 0.1
2018-Jan-19 19:00N 35°27' E 139°39'0 0.1
2018-Jan-19 18:31N 35°27' E 139°40'0 0.1
2018-Jan-19 18:01N 35°27' E 139°39'0 0.0
2018-Jan-19 17:30N 35°27' E 139°39'0 0.1
2018-Jan-19 16:59N 35°27' E 139°40'0 0.0
2018-Jan-19 16:30N 35°27' E 139°40'0 0.1
2018-Jan-19 16:00N 35°27' E 139°39'0 0.0
2018-Jan-19 15:30N 35°27' E 139°39'0 0.1
2018-Jan-19 15:01N 35°27' E 139°40'0 0.0
2018-Jan-19 14:30N 35°27' E 139°40'0 0.0
2018-Jan-19 14:00N 35°27' E 139°40'0 0.1
2018-Jan-19 13:31N 35°27' E 139°39'0 0.0
2018-Jan-19 13:00N 35°27' E 139°39'0 0.0
2018-Jan-19 12:31N 35°27' E 139°39'0 0.0
2018-Jan-19 12:00N 35°27' E 139°39'0 0.1
2018-Jan-19 11:30N 35°27' E 139°40'0 0.0
2018-Jan-19 11:00N 35°27' E 139°40'0 0.0
2018-Jan-19 10:30N 35°27' E 139°40'0 0.0
2018-Jan-19 10:00N 35°27' E 139°40'0 0.0
2018-Jan-19 09:30N 35°27' E 139°40'0 0.1
2018-Jan-19 09:00N 35°27' E 139°39'0 0.1
2018-Jan-19 08:30N 35°27' E 139°40'0 0.0
2018-Jan-19 08:01N 35°27' E 139°40'0 0.0
2018-Jan-19 07:30N 35°27' E 139°40'2 4.2
2018-Jan-19 07:00N 35°28' E 139°42'1 2.7
2018-Jan-19 06:31N 35°27' E 139°43'0 1.0
2018-Jan-19 06:00N 35°27' E 139°42'0 0.0
2018-Jan-19 05:30N 35°27' E 139°42'0 0.0
2018-Jan-19 05:00N 35°27' E 139°42'0 0.0
2018-Jan-19 04:30N 35°27' E 139°42'1 1.1
2018-Jan-19 04:00N 35°27' E 139°43'510.0
2018-Jan-19 03:31N 35°29' E 139°49'612.7
2018-Jan-19 03:00N 35°31' E 139°56'0 0.2
2018-Jan-19 02:30N 35°31' E 139°56'0 0.1
2018-Jan-19 02:00N 35°31' E 139°56'0 0.7
2018-Jan-19 01:30N 35°31' E 139°56'2 3.0
2018-Jan-19 01:00N 35°30' E 139°54'1 1.1
2018-Jan-19 00:27N 35°29' E 139°54'2 3.5
2018-Jan-19 00:00N 35°29' E 139°56'2 2.4
2018-Jan-18 23:15N 35°28' E 139°58'0 0.0
2018-Jan-18 22:58N 35°28' E 139°58'3 7.1
2018-Jan-18 22:30N 35°29' E 139°54'5 9.5
2018-Jan-18 22:00N 35°27' E 139°49'5 9.5
2018-Jan-18 21:30N 35°27' E 139°43'3 5.7
2018-Jan-18 21:00N 35°27' E 139°40'0 0.1
2018-Jan-18 20:30N 35°27' E 139°39'0 0.1
2018-Jan-18 20:00N 35°27' E 139°40'0 0.0
2018-Jan-18 19:30N 35°27' E 139°40'0 0.1
2018-Jan-18 19:01N 35°27' E 139°39'0 0.1
2018-Jan-18 18:31N 35°27' E 139°40'0 0.1
2018-Jan-18 18:00N 35°27' E 139°39'0 0.1
2018-Jan-18 17:30N 35°27' E 139°40'0 0.0
2018-Jan-18 17:01N 35°27' E 139°40'0 0.0
2018-Jan-18 16:31N 35°27' E 139°40'0 0.1
2018-Jan-18 16:01N 35°27' E 139°39'0 0.1
2018-Jan-18 15:31N 35°27' E 139°40'0 0.1
2018-Jan-18 15:00N 35°27' E 139°39'0 0.1
2018-Jan-18 14:30N 35°27' E 139°40'0 0.0
2018-Jan-18 13:59N 35°27' E 139°40'0 0.0
2018-Jan-18 13:30N 35°27' E 139°40'0 0.0
2018-Jan-18 13:00N 35°27' E 139°40'0 0.1
2018-Jan-18 12:31N 35°27' E 139°39'0 0.0
2018-Jan-18 12:01N 35°27' E 139°39'0 0.0
2018-Jan-18 11:30N 35°27' E 139°39'0 0.1
2018-Jan-18 11:00N 35°27' E 139°40'0 0.1
2018-Jan-18 10:30N 35°27' E 139°39'0 0.1
2018-Jan-18 10:01N 35°27' E 139°40'0 0.0
2018-Jan-18 09:31N 35°27' E 139°40'0 0.1
2018-Jan-18 09:01N 35°27' E 139°39'0 0.1
2018-Jan-18 08:30N 35°27' E 139°40'0 0.0
2018-Jan-18 08:01N 35°27' E 139°40'0 0.0
2018-Jan-18 07:31N 35°27' E 139°40'0 0.1
2018-Jan-18 07:01N 35°27' E 139°39'0 0.1
2018-Jan-18 06:31N 35°27' E 139°40'0 0.1
2018-Jan-18 05:59N 35°27' E 139°39'0 0.1
2018-Jan-18 05:31N 35°27' E 139°40'4 7.3
2018-Jan-18 05:01N 35°29' E 139°43'0 0.2
2018-Jan-18 04:30N 35°29' E 139°43'0 0.6
2018-Jan-18 04:00N 35°29' E 139°43'2 4.0
2018-Jan-18 03:30N 35°28' E 139°45'0 0.7
2018-Jan-18 03:00N 35°28' E 139°44'0 0.0
2018-Jan-18 02:30N 35°28' E 139°44'3 5.9
2018-Jan-18 02:00N 35°27' E 139°41'1 2.6
2018-Jan-18 01:30N 35°27' E 139°39'0 0.1
2018-Jan-18 01:00N 35°27' E 139°40'0 0.0
2018-Jan-18 00:01N 35°27' E 139°40'0 0.0
2018-Jan-17 23:58N 35°27' E 139°40'  

Dump ship's entire track history